sensor_id;sensor_type;location;lat;lon;timestamp;temperature;humidity
53954;HTU21D;39862;54.856;26.318;2022-10-17T02:48:39;14.7;72.7
53954;HTU21D;39862;54.856;26.318;2022-10-17T02:54:30;13.8;72.1
53954;HTU21D;39862;54.856;26.318;2022-10-17T02:59:28;13.8;72.1
53954;HTU21D;39862;54.856;26.318;2022-10-17T03:04:28;13.7;72.1
53954;HTU21D;39862;54.856;26.318;2022-10-17T03:08:58;13.7;72.1
53954;HTU21D;39862;54.856;26.318;2022-10-17T03:14:28;13.7;71.9
53954;HTU21D;39862;54.856;26.318;2022-10-17T03:19:26;13.7;71.9
53954;HTU21D;39862;54.856;26.318;2022-10-17T03:24:02;13.6;71.9
53954;HTU21D;39862;54.856;26.318;2022-10-17T03:29:04;13.6;72.1
53954;HTU21D;39862;54.856;26.318;2022-10-17T03:33:38;13.7;72.3
53954;HTU21D;39862;54.856;26.318;2022-10-17T03:38:52;13.7;72.5
53954;HTU21D;39862;54.856;26.318;2022-10-17T03:43:38;13.7;72.4
53954;HTU21D;39862;54.856;26.318;2022-10-17T03:49:04;13.7;72.2
53954;HTU21D;39862;54.856;26.318;2022-10-17T03:54:28;13.6;72
53954;HTU21D;39862;54.856;26.318;2022-10-17T03:59:14;13.5;71.8
53954;HTU21D;39862;54.856;26.318;2022-10-17T04:04:02;13.4;71.6
53954;HTU21D;39862;54.856;26.318;2022-10-17T04:09:18;13.4;71.5
53954;HTU21D;39862;54.856;26.318;2022-10-17T04:14:16;13.3;71.3
53954;HTU21D;39862;54.856;26.318;2022-10-17T04:19:30;13.3;71.3
53954;HTU21D;39862;54.856;26.318;2022-10-17T04:23:51;13.2;71.4
53954;HTU21D;39862;54.856;26.318;2022-10-17T04:28:52;13.2;71.4
53954;HTU21D;39862;54.856;26.318;2022-10-17T04:34:28;13.1;71.5
53954;HTU21D;39862;54.856;26.318;2022-10-17T04:39:02;13.1;71.6
53954;HTU21D;39862;54.856;26.318;2022-10-17T04:43:38;13;71.8
53954;HTU21D;39862;54.856;26.318;2022-10-17T04:49:16;13;72
53954;HTU21D;39862;54.856;26.318;2022-10-17T04:54:14;13;72.3
53954;HTU21D;39862;54.856;26.318;2022-10-17T04:59:02;13;72.4
53954;HTU21D;39862;54.856;26.318;2022-10-17T05:04:16;13;72.5
53954;HTU21D;39862;54.856;26.318;2022-10-17T05:09:28;13;72.6
53954;HTU21D;39862;54.856;26.318;2022-10-17T05:13:38;13.1;72.5
53954;HTU21D;39862;54.856;26.318;2022-10-17T05:18:39;13;72.3
53954;HTU21D;39862;54.856;26.318;2022-10-17T05:24:28;13;72.2
53954;HTU21D;39862;54.856;26.318;2022-10-17T05:29:28;13;72.1
53954;HTU21D;39862;54.856;26.318;2022-10-17T05:34:26;12.9;72
53954;HTU21D;39862;54.856;26.318;2022-10-17T05:38:47;12.9;71.9
53954;HTU21D;39862;54.856;26.318;2022-10-17T05:44:24;12.9;72
53954;HTU21D;39862;54.856;26.318;2022-10-17T05:49:24;12.9;72.2
53954;HTU21D;39862;54.856;26.318;2022-10-17T05:54:00;12.9;72.3
53954;HTU21D;39862;54.856;26.318;2022-10-17T05:58:39;12.8;72.5
53954;HTU21D;39862;54.856;26.318;2022-10-17T06:03:52;12.9;72.6
53954;HTU21D;39862;54.856;26.318;2022-10-17T06:08:38;12.9;72.8
53954;HTU21D;39862;54.856;26.318;2022-10-17T06:13:38;12.9;73
53954;HTU21D;39862;54.856;26.318;2022-10-17T06:19:00;12.9;73.1
53954;HTU21D;39862;54.856;26.318;2022-10-17T06:24:04;12.9;73.4
53954;HTU21D;39862;54.856;26.318;2022-10-17T06:29:10;12.9;73.8
53954;HTU21D;39862;54.856;26.318;2022-10-17T06:33:54;13;74.3
53954;HTU21D;39862;54.856;26.318;2022-10-17T06:38:58;13;74.8
53954;HTU21D;39862;54.856;26.318;2022-10-17T06:44:22;13.1;75.3
53954;HTU21D;39862;54.856;26.318;2022-10-17T06:49:26;13.3;75.9
53954;HTU21D;39862;54.856;26.318;2022-10-17T06:53:38;13.4;76.2
53954;HTU21D;39862;54.856;26.318;2022-10-17T06:58:52;13.5;76.4
53954;HTU21D;39862;54.856;26.318;2022-10-17T07:03:38;13.7;76.5
53954;HTU21D;39862;54.856;26.318;2022-10-17T07:09:24;13.8;76.7
53954;HTU21D;39862;54.856;26.318;2022-10-17T07:14:16;14;77.2
53954;HTU21D;39862;54.856;26.318;2022-10-17T07:18:58;14.2;78.3
53954;HTU21D;39862;54.856;26.318;2022-10-17T07:24:16;14.4;78.8
53954;HTU21D;39862;54.856;26.318;2022-10-17T07:29:14;14.7;79
53954;HTU21D;39862;54.856;26.318;2022-10-17T07:34:04;14.9;79.1
53954;HTU21D;39862;54.856;26.318;2022-10-17T07:39:18;15.1;79.1
53954;HTU21D;39862;54.856;26.318;2022-10-17T07:43:38;15.3;79.1
53954;HTU21D;39862;54.856;26.318;2022-10-17T07:48:54;15.5;78.9
53954;HTU21D;39862;54.856;26.318;2022-10-17T07:53:38;15.7;78.5
53954;HTU21D;39862;54.856;26.318;2022-10-17T07:59:24;15.9;78
53954;HTU21D;39862;54.856;26.318;2022-10-17T08:04:14;16;77.6
53954;HTU21D;39862;54.856;26.318;2022-10-17T08:08:58;16.2;77
53954;HTU21D;39862;54.856;26.318;2022-10-17T08:14:02;16.3;76.5
53954;HTU21D;39862;54.856;26.318;2022-10-17T08:19:16;16.4;76.3
53954;HTU21D;39862;54.856;26.318;2022-10-17T08:24:28;16.5;76.3
53954;HTU21D;39862;54.856;26.318;2022-10-17T08:29:02;16.6;76.3
53954;HTU21D;39862;54.856;26.318;2022-10-17T08:33:38;16.8;76.6
53954;HTU21D;39862;54.856;26.318;2022-10-17T08:38:38;17.1;76.7
53954;HTU21D;39862;54.856;26.318;2022-10-17T08:43:43;17.3;76.8
53954;HTU21D;39862;54.856;26.318;2022-10-17T08:48:52;17.6;76.4
53954;HTU21D;39862;54.856;26.318;2022-10-17T08:53:53;17.9;76.1
53954;HTU21D;39862;54.856;26.318;2022-10-17T08:59:15;18.2;75.4
53954;HTU21D;39862;54.856;26.318;2022-10-17T09:04:38;18.5;74.5
53954;HTU21D;39862;54.856;26.318;2022-10-17T09:09:18;18.7;73.5
53954;HTU21D;39862;54.856;26.318;2022-10-17T09:14:31;19;72.5
53954;HTU21D;39862;54.856;26.318;2022-10-17T09:19:29;19.3;71.6
53954;HTU21D;39862;54.856;26.318;2022-10-17T09:23:53;19.5;70.1
53954;HTU21D;39862;54.856;26.318;2022-10-17T09:29:27;19.7;69.6
53954;HTU21D;39862;54.856;26.318;2022-10-17T09:33:53;19.9;68.7
53954;HTU21D;39862;54.856;26.318;2022-10-17T09:39:26;20.1;67.5
53954;HTU21D;39862;54.856;26.318;2022-10-17T09:44:18;20.3;66.3
53954;HTU21D;39862;54.856;26.318;2022-10-17T09:49:17;20.5;64.9
53954;HTU21D;39862;54.856;26.318;2022-10-17T09:54:17;20.7;63.9
53954;HTU21D;39862;54.856;26.318;2022-10-17T09:58:57;20.9;63
53954;HTU21D;39862;54.856;26.318;2022-10-17T10:04:16;21;61.8
53954;HTU21D;39862;54.856;26.318;2022-10-17T10:09:18;21.1;60.7
53954;HTU21D;39862;54.856;26.318;2022-10-17T10:14:19;21.2;59.2
53954;HTU21D;39862;54.856;26.318;2022-10-17T10:19:02;21.3;58.2
53954;HTU21D;39862;54.856;26.318;2022-10-17T10:23:38;21.4;58.1
53954;HTU21D;39862;54.856;26.318;2022-10-17T10:29:31;21.5;57.3
53954;HTU21D;39862;54.856;26.318;2022-10-17T10:34:13;21.6;56.8
53954;HTU21D;39862;54.856;26.318;2022-10-17T10:39:31;21.7;57
53954;HTU21D;39862;54.856;26.318;2022-10-17T10:44:00;21.7;56.6
53954;HTU21D;39862;54.856;26.318;2022-10-17T10:49:26;21.8;56.1
53954;HTU21D;39862;54.856;26.318;2022-10-17T10:54:27;21.9;56.1
53954;HTU21D;39862;54.856;26.318;2022-10-17T10:58:53;22;56
53954;HTU21D;39862;54.856;26.318;2022-10-17T11:04:00;22;53.6
53954;HTU21D;39862;54.856;26.318;2022-10-17T11:09:00;22;51.9
53954;HTU21D;39862;54.856;26.318;2022-10-17T11:13:40;22;51
53954;HTU21D;39862;54.856;26.318;2022-10-17T11:19:07;21.9;50.4
53954;HTU21D;39862;54.856;26.318;2022-10-17T11:23:39;21.9;50.4
53954;HTU21D;39862;54.856;26.318;2022-10-17T11:29:12;21.8;49.8
53954;HTU21D;39862;54.856;26.318;2022-10-17T11:34:27;21.7;48.8
53954;HTU21D;39862;54.856;26.318;2022-10-17T11:38:39;21.5;47.8
53954;HTU21D;39862;54.856;26.318;2022-10-17T11:44:33;21.4;46.5
53954;HTU21D;39862;54.856;26.318;2022-10-17T11:49:29;21.2;46
53954;HTU21D;39862;54.856;26.318;2022-10-17T11:53:57;21;45.8
53954;HTU21D;39862;54.856;26.318;2022-10-17T11:58:49;20.7;46.1
53954;HTU21D;39862;54.856;26.318;2022-10-17T12:03:41;20.5;47
53954;HTU21D;39862;54.856;26.318;2022-10-17T12:09:31;20.3;47.6
53954;HTU21D;39862;54.856;26.318;2022-10-17T12:14:35;20.2;47.7
53954;HTU21D;39862;54.856;26.318;2022-10-17T12:19:20;20;48
53954;HTU21D;39862;54.856;26.318;2022-10-17T12:24:17;19.8;49
53954;HTU21D;39862;54.856;26.318;2022-10-17T12:28:58;19.5;49.4
53954;HTU21D;39862;54.856;26.318;2022-10-17T12:34:02;19.3;49.3
53954;HTU21D;39862;54.856;26.318;2022-10-17T12:39:46;19.2;49.3
53954;HTU21D;39862;54.856;26.318;2022-10-17T12:43:44;19;49
53954;HTU21D;39862;54.856;26.318;2022-10-17T12:49:44;18.9;49.1
53954;HTU21D;39862;54.856;26.318;2022-10-17T12:53:40;18.7;49.7
53954;HTU21D;39862;54.856;26.318;2022-10-17T12:59:19;18.6;50
53954;HTU21D;39862;54.856;26.318;2022-10-17T13:04:14;18.4;50.3
53954;HTU21D;39862;54.856;26.318;2022-10-17T13:08:55;18.3;50.7
53954;HTU21D;39862;54.856;26.318;2022-10-17T13:13:40;18.2;50.6
53954;HTU21D;39862;54.856;26.318;2022-10-17T13:19:19;18.1;51.3
53954;HTU21D;39862;54.856;26.318;2022-10-17T13:24:29;18;51.9
53954;HTU21D;39862;54.856;26.318;2022-10-17T13:29:03;17.9;52.2
53954;HTU21D;39862;54.856;26.318;2022-10-17T13:33:55;17.8;52.7
53954;HTU21D;39862;54.856;26.318;2022-10-17T13:38:38;17.7;53.1
53954;HTU21D;39862;54.856;26.318;2022-10-17T13:43:38;17.7;53.5
53954;HTU21D;39862;54.856;26.318;2022-10-17T13:48:38;17.6;53.9
53954;HTU21D;39862;54.856;26.318;2022-10-17T13:54:15;17.6;54.1
53954;HTU21D;39862;54.856;26.318;2022-10-17T13:59:17;17.5;54.5
53954;HTU21D;39862;54.856;26.318;2022-10-17T14:04:28;17.5;54.9
53954;HTU21D;39862;54.856;26.318;2022-10-17T14:09:03;17.4;54.8
53954;HTU21D;39862;54.856;26.318;2022-10-17T14:14:19;17.4;54.8
53954;HTU21D;39862;54.856;26.318;2022-10-17T14:19:30;17.3;54.8
53954;HTU21D;39862;54.856;26.318;2022-10-17T14:23:39;17.2;54.8
53954;HTU21D;39862;54.856;26.318;2022-10-17T14:29:01;17.1;54.9
53954;HTU21D;39862;54.856;26.318;2022-10-17T14:33:52;16.9;55.1
53954;HTU21D;39862;54.856;26.318;2022-10-17T14:39:26;16.8;55.4
53954;HTU21D;39862;54.856;26.318;2022-10-17T14:44:19;16.7;55.6
53954;HTU21D;39862;54.856;26.318;2022-10-17T14:49:18;16.6;55.7
53954;HTU21D;39862;54.856;26.318;2022-10-17T14:54:16;16.5;55.6
53954;HTU21D;39862;54.856;26.318;2022-10-17T14:59:14;16.4;55.5
53954;HTU21D;39862;54.856;26.318;2022-10-17T15:04:04;16.3;55.6
53954;HTU21D;39862;54.856;26.318;2022-10-17T15:09:18;16.2;55.9
53954;HTU21D;39862;54.856;26.318;2022-10-17T15:14:30;16;56.2
53954;HTU21D;39862;54.856;26.318;2022-10-17T15:19:26;15.9;56.5
53954;HTU21D;39862;54.856;26.318;2022-10-17T15:23:38;15.8;56.6
53954;HTU21D;39862;54.856;26.318;2022-10-17T15:29:28;15.6;56.7
53954;HTU21D;39862;54.856;26.318;2022-10-17T15:34:26;15.4;56.8
53954;HTU21D;39862;54.856;26.318;2022-10-17T15:39:28;15.3;56.8
53954;HTU21D;39862;54.856;26.318;2022-10-17T15:44:02;15.1;56.9
53954;HTU21D;39862;54.856;26.318;2022-10-17T15:49:28;15;57.3
53954;HTU21D;39862;54.856;26.318;2022-10-17T15:54:28;14.9;57.7
53954;HTU21D;39862;54.856;26.318;2022-10-17T15:59:05;14.7;58
53954;HTU21D;39862;54.856;26.318;2022-10-17T16:04:04;14.6;58.1
53954;HTU21D;39862;54.856;26.318;2022-10-17T16:08:50;14.5;58.1
53954;HTU21D;39862;54.856;26.318;2022-10-17T16:14:08;14.3;58.2
53954;HTU21D;39862;54.856;26.318;2022-10-17T16:18:38;14.2;58.5
53954;HTU21D;39862;54.856;26.318;2022-10-17T16:24:04;14.1;58.7
53954;HTU21D;39862;54.856;26.318;2022-10-17T16:29:30;14;58.7
53954;HTU21D;39862;54.856;26.318;2022-10-17T16:34:14;13.9;58.9
53954;HTU21D;39862;54.856;26.318;2022-10-17T16:38:38;13.7;59.3
53954;HTU21D;39862;54.856;26.318;2022-10-17T16:44:28;13.7;59.6
53954;HTU21D;39862;54.856;26.318;2022-10-17T16:48:40;13.6;59.9
53954;HTU21D;39862;54.856;26.318;2022-10-17T16:54:30;13.4;60
53954;HTU21D;39862;54.856;26.318;2022-10-17T16:58:52;13.3;60.1
53954;HTU21D;39862;54.856;26.318;2022-10-17T17:03:39;13.2;60.3
53954;HTU21D;39862;54.856;26.318;2022-10-17T17:09:31;13.1;60.6
53954;HTU21D;39862;54.856;26.318;2022-10-17T17:14:20;13.1;60.8
53954;HTU21D;39862;54.856;26.318;2022-10-17T17:19:11;13;61
53954;HTU21D;39862;54.856;26.318;2022-10-17T17:23:41;12.9;61.1
53954;HTU21D;39862;54.856;26.318;2022-10-17T17:29:14;12.8;61.2
53954;HTU21D;39862;54.856;26.318;2022-10-17T17:34:06;12.7;61.4
53954;HTU21D;39862;54.856;26.318;2022-10-17T17:39:18;12.6;61.6
53954;HTU21D;39862;54.856;26.318;2022-10-17T17:44:26;12.6;61.9
53954;HTU21D;39862;54.856;26.318;2022-10-17T17:48:51;12.5;62
53954;HTU21D;39862;54.856;26.318;2022-10-17T17:53:50;12.4;62.3
53954;HTU21D;39862;54.856;26.318;2022-10-17T17:59:30;12.4;62.6
53954;HTU21D;39862;54.856;26.318;2022-10-17T18:04:28;12.4;63
53954;HTU21D;39862;54.856;26.318;2022-10-17T18:09:26;12.4;63.4
53954;HTU21D;39862;54.856;26.318;2022-10-17T18:13:53;12.4;63.7
53954;HTU21D;39862;54.856;26.318;2022-10-17T18:19:28;12.4;64
53954;HTU21D;39862;54.856;26.318;2022-10-17T18:24:28;12.4;64.2
53954;HTU21D;39862;54.856;26.318;2022-10-17T18:29:06;12.4;64.4
53954;HTU21D;39862;54.856;26.318;2022-10-17T18:33:51;12.3;64.5
53954;HTU21D;39862;54.856;26.318;2022-10-17T18:39:12;12.3;64.8
53954;HTU21D;39862;54.856;26.318;2022-10-17T18:43:53;12.4;64.9
53954;HTU21D;39862;54.856;26.318;2022-10-17T18:49:05;12.4;65.1
53954;HTU21D;39862;54.856;26.318;2022-10-17T18:54:20;12.4;65.3
53954;HTU21D;39862;54.856;26.318;2022-10-17T18:59:31;12.4;65.4
53954;HTU21D;39862;54.856;26.318;2022-10-17T19:04:16;12.4;65.6
53954;HTU21D;39862;54.856;26.318;2022-10-17T19:08:59;12.4;65.7
53954;HTU21D;39862;54.856;26.318;2022-10-17T19:14:26;12.4;65.8
53954;HTU21D;39862;54.856;26.318;2022-10-17T19:19:18;12.4;65.9
53954;HTU21D;39862;54.856;26.318;2022-10-17T19:24:26;12.4;65.9
53954;HTU21D;39862;54.856;26.318;2022-10-17T19:28:39;12.4;65.9
53954;HTU21D;39862;54.856;26.318;2022-10-17T19:33:52;12.4;65.9
53954;HTU21D;39862;54.856;26.318;2022-10-17T19:38:53;12.4;66
53954;HTU21D;39862;54.856;26.318;2022-10-17T19:44:30;12.4;66.1
53954;HTU21D;39862;54.856;26.318;2022-10-17T19:49:20;12.5;66.4
53954;HTU21D;39862;54.856;26.318;2022-10-17T19:54:14;12.5;66.6
53954;HTU21D;39862;54.856;26.318;2022-10-17T19:59:16;12.5;66.8
53954;HTU21D;39862;54.856;26.318;2022-10-17T20:04:16;12.5;67.1
53954;HTU21D;39862;54.856;26.318;2022-10-17T20:08:39;12.6;67.1
53954;HTU21D;39862;54.856;26.318;2022-10-17T20:14:20;12.6;67.1
53954;HTU21D;39862;54.856;26.318;2022-10-17T20:18:39;12.7;67.1
53954;HTU21D;39862;54.856;26.318;2022-10-17T20:24:07;12.7;67.3
53954;HTU21D;39862;54.856;26.318;2022-10-17T20:28:39;12.8;67.5
53954;HTU21D;39862;54.856;26.318;2022-10-17T20:34:30;12.8;67.5
53954;HTU21D;39862;54.856;26.318;2022-10-17T20:39:13;12.8;67.6
53954;HTU21D;39862;54.856;26.318;2022-10-17T20:43:38;12.9;67.6
53954;HTU21D;39862;54.856;26.318;2022-10-17T20:49:03;12.9;67.6
53954;HTU21D;39862;54.856;26.318;2022-10-17T20:54:14;13;67.6
53954;HTU21D;39862;54.856;26.318;2022-10-17T20:59:28;13;67.7
53954;HTU21D;39862;54.856;26.318;2022-10-17T21:03:38;13.1;67.7
53954;HTU21D;39862;54.856;26.318;2022-10-17T21:08:38;13.1;67.6
53954;HTU21D;39862;54.856;26.318;2022-10-17T21:13:53;13.2;67.5
53954;HTU21D;39862;54.856;26.318;2022-10-17T21:18:39;13.2;67.6
53954;HTU21D;39862;54.856;26.318;2022-10-17T21:23:53;13.2;67.7
53954;HTU21D;39862;54.856;26.318;2022-10-17T21:29:18;13.3;67.8
53954;HTU21D;39862;54.856;26.318;2022-10-17T21:34:16;13.3;67.8
53954;HTU21D;39862;54.856;26.318;2022-10-17T21:39:28;13.3;67.8
53954;HTU21D;39862;54.856;26.318;2022-10-17T21:44:01;13.3;67.8
53954;HTU21D;39862;54.856;26.318;2022-10-17T21:49:30;13.4;67.8
53954;HTU21D;39862;54.856;26.318;2022-10-17T21:54:30;13.4;67.8
53954;HTU21D;39862;54.856;26.318;2022-10-17T21:59:05;13.4;68
53954;HTU21D;39862;54.856;26.318;2022-10-17T22:03:49;13.4;68.1
53954;HTU21D;39862;54.856;26.318;2022-10-17T22:08:38;13.4;68.3
53954;HTU21D;39862;54.856;26.318;2022-10-17T22:14:27;13.4;68.5
53954;HTU21D;39862;54.856;26.318;2022-10-17T22:19:17;13.5;68.7
53954;HTU21D;39862;54.856;26.318;2022-10-17T22:24:13;13.5;68.9
53954;HTU21D;39862;54.856;26.318;2022-10-17T22:29:16;13.5;69.2
53954;HTU21D;39862;54.856;26.318;2022-10-17T22:34:17;13.5;69.6
53954;HTU21D;39862;54.856;26.318;2022-10-17T22:38:51;13.6;69.7
53954;HTU21D;39862;54.856;26.318;2022-10-17T22:44:18;13.6;69.9
53954;HTU21D;39862;54.856;26.318;2022-10-17T22:49:00;13.7;70.1
53954;HTU21D;39862;54.856;26.318;2022-10-17T22:53:52;13.7;70
53954;HTU21D;39862;54.856;26.318;2022-10-17T22:58:52;13.7;70.1
53954;HTU21D;39862;54.856;26.318;2022-10-17T23:04:30;13.7;70.1
53954;HTU21D;39862;54.856;26.318;2022-10-17T23:09:12;13.7;70.2
53954;HTU21D;39862;54.856;26.318;2022-10-17T23:14:03;13.8;70.2
53954;HTU21D;39862;54.856;26.318;2022-10-17T23:19:02;13.8;70.2
